• Join FlightAware (Why Join?)
  • Login
  • US Flag 
03:50AM EDT


 

Airport Tracker/Info


-or-


 

Live Flight TrackerFlight Track Log ✈ RPA3242 ✈ 22-May-2013 ✈ KPHL - KALB

Flight Track Log - Related Links

Times and Time Zones

All times are in EDT time to prevent confusion due to time zone crossing. See the RPA3242 flight status page for this flight to view local times or setup timezone preferences in your user account.

Time Position Orientation Groundspeed Altitude Reporting Facility
EDT Latitude Longitude Course Direction KTS MPH feet Rate Location/Type
10:31PM 39.7872 -74.7192 105° East  Level FlightAware Approximate
10:32PM 39.8365 -74.6469 37° Northeast  Level FlightAware Approximate
10:33PM 39.9017 -74.5817 38° Northeast  Level FlightAware Approximate
10:34PM 39.9704 -74.5296 37° Northeast  Level FlightAware Approximate
10:35PM 40.0356 -74.4644 37° Northeast  Level FlightAware Approximate
10:36PM 40.1009 -74.3991 37° Northeast  Level FlightAware Approximate
10:37PM 40.1664 -74.3340 37° Northeast  Level FlightAware Approximate
10:38PM 40.2318 -74.2688 37° Northeast  Level FlightAware Approximate
10:39PM 40.2972 -74.2034 37° Northeast  Level FlightAware Approximate
10:40PM 40.3626 -74.1380 37° Northeast  Level FlightAware Approximate
10:41PM 40.4279 -74.0724 37° Northeast  Level FlightAware Approximate
10:42PM 40.4977 -74.0171 22° Northeast  Level FlightAware Approximate
10:43PM 40.5741 -73.9770 22° Northeast  Level FlightAware Approximate
10:44PM 40.6504 -73.9368 22° Northeast  Level FlightAware Approximate
10:45PM 40.7268 -73.8966 22° Northeast  Level FlightAware Approximate
10:46PM 40.7983 -73.8467 45° Northeast  Level FlightAware Approximate
10:47PM 40.8572 -73.7709 43° Northeast  Level FlightAware Approximate
10:48PM 40.9176 -73.6971 43° Northeast  Level FlightAware Approximate
10:49PM 40.9779 -73.6231 43° Northeast  Level FlightAware Approximate
10:50PM 41.0382 -73.5490 43° Northeast  Level FlightAware Approximate
10:51PM 41.0984 -73.4747 43° Northeast  Level FlightAware Approximate
10:52PM 41.1586 -73.4004 43° Northeast  Level FlightAware Approximate
10:53PM 41.2188 -73.3258 43° Northeast  Level FlightAware Approximate
10:54PM 41.2788 -73.2512 43° Northeast  Level FlightAware Approximate
10:55PM 41.3405 -73.1869 339° North  Level FlightAware Approximate
10:56PM 41.4175 -73.2253 339° North  Level FlightAware Approximate
10:57PM 41.4945 -73.2639 339° North  Level FlightAware Approximate
10:58PM 41.5743 -73.2884 334° Northwest  Level FlightAware Approximate
10:59PM 41.6505 -73.3279 346° North  Level FlightAware Approximate
11:00PM 41.7291 -73.3600 342° North  Level FlightAware Approximate
11:01PM 41.8074 -73.3936 342° North  Level FlightAware Approximate
11:02PM 41.8858 -73.4272 342° North  Level FlightAware Approximate
11:03PM 41.9648 -73.4576 344° North  Level FlightAware Approximate
11:04PM 42.0437 -73.4885 340° North  Level FlightAware Approximate
11:05PM 42.1220 -73.5130 North  Level FlightAware Approximate
11:06PM 42.2036 -73.4988 14° North  Level FlightAware Approximate
11:07PM 42.2842 -73.4801 North  Level FlightAware Approximate
11:08PM 42.3657 -73.4653 North  Level FlightAware Approximate
11:09PM 42.4472 -73.4505 North  Level FlightAware Approximate
11:10PM 42.5095 -73.4809 312° West  Level FlightAware Approximate
11:11PM 42.5710 -73.5543 324° Northwest  Level FlightAware Approximate